createdAt,value
2022-11-27T00:01:46.453Z,101461.66
2022-11-27T00:06:47.744Z,101464.31
2022-11-27T00:11:49.101Z,101452.63
2022-11-27T00:16:50.667Z,101442.00
2022-11-27T00:21:52.012Z,101430.66
2022-11-27T00:26:53.384Z,101428.22
2022-11-27T00:31:56.246Z,101417.63
2022-11-27T00:36:57.556Z,101420.03
2022-11-27T00:41:59.127Z,101415.41
2022-11-27T00:47:00.598Z,101376.69
2022-11-27T00:52:02.415Z,101396.34
2022-11-27T00:57:04.665Z,101401.78
2022-11-27T01:02:06.268Z,101384.16
2022-11-27T01:07:07.669Z,101400.75
2022-11-27T01:12:09.224Z,101392.28
2022-11-27T01:17:10.598Z,101378.50
2022-11-27T01:22:11.935Z,101379.88
2022-11-27T01:27:14.864Z,101372.69
2022-11-27T01:32:16.438Z,101373.41
2022-11-27T01:37:17.841Z,101363.81
2022-11-27T01:42:19.338Z,101364.06
2022-11-27T01:47:31.278Z,101366.88
2022-11-27T01:52:37.649Z,101361.72
2022-11-27T01:57:47.402Z,101357.97
2022-11-27T02:02:49.237Z,101358.13
2022-11-27T02:07:52.672Z,101370.03
2022-11-27T02:13:03.895Z,101359.13
2022-11-27T02:18:23.242Z,101361.38
2022-11-27T02:23:43.467Z,101354.69
2022-11-27T02:29:07.652Z,101348.13
2022-11-27T02:34:35.802Z,101336.94
2022-11-27T02:39:57.363Z,101330.06
2022-11-27T02:45:03.905Z,101323.75
2022-11-27T02:50:09.135Z,101336.34
2022-11-27T02:55:15.039Z,101330.56
2022-11-27T03:00:17.637Z,101320.53
2022-11-27T03:05:21.635Z,101300.25
2022-11-27T03:10:34.278Z,101298.66
2022-11-27T03:15:49.298Z,101310.06
2022-11-27T03:20:55.471Z,101308.31
2022-11-27T03:25:56.790Z,101315.56
2022-11-27T03:30:58.341Z,101299.84
2022-11-27T03:35:59.872Z,101289.44
2022-11-27T03:41:11.883Z,101298.81
2022-11-27T03:46:30.093Z,101297.97
2022-11-27T03:52:07.981Z,101287.59
2022-11-27T03:57:20.294Z,101281.72
2022-11-27T04:02:40.303Z,101269.53
2022-11-27T04:07:42.236Z,101269.00
2022-11-27T04:12:43.608Z,101238.44
2022-11-27T04:17:45.073Z,101271.09
2022-11-27T04:22:46.577Z,101261.78
2022-11-27T04:27:47.904Z,101251.13
2022-11-27T04:32:49.268Z,101256.28
2022-11-27T04:37:50.661Z,101248.50
2022-11-27T04:42:52.056Z,101245.13
2022-11-27T04:47:53.448Z,101244.34
2022-11-27T04:52:54.772Z,101231.53
2022-11-27T04:57:56.038Z,101249.97
2022-11-27T05:02:57.439Z,101241.41
2022-11-27T05:07:58.944Z,101241.72
2022-11-27T05:13:00.292Z,101239.56
2022-11-27T05:18:01.573Z,101240.63
2022-11-27T05:23:02.966Z,101228.78
2022-11-27T05:28:06.169Z,101222.00
2022-11-27T05:33:07.584Z,101212.53
2022-11-27T05:38:09.361Z,101225.53
2022-11-27T05:43:10.705Z,101216.06
2022-11-27T05:48:12.057Z,101223.22
2022-11-27T05:53:13.615Z,101227.53
2022-11-27T05:58:14.975Z,101227.28
2022-11-27T06:03:16.312Z,101220.03
2022-11-27T06:08:17.916Z,101214.81
2022-11-27T06:13:19.405Z,101197.53
2022-11-27T06:18:20.847Z,101189.59
2022-11-27T06:23:22.383Z,101190.44
2022-11-27T06:28:23.726Z,101193.94
2022-11-27T06:33:25.074Z,101182.31
2022-11-27T06:38:26.390Z,101181.28
2022-11-27T06:43:27.783Z,101190.00
2022-11-27T06:48:30.206Z,101172.84
2022-11-27T06:53:34.435Z,101146.22
2022-11-27T06:58:38.679Z,101181.13
2022-11-27T07:03:40.630Z,101170.78
2022-11-27T07:08:42.457Z,101168.22
2022-11-27T07:13:45.001Z,101166.38
2022-11-27T07:18:49.320Z,101167.69
2022-11-27T07:23:51.138Z,101163.78
2022-11-27T07:28:53.333Z,101152.91
2022-11-27T07:33:55.002Z,101145.00
2022-11-27T07:38:58.012Z,101149.22
2022-11-27T07:43:59.465Z,101153.56
2022-11-27T07:49:01.267Z,101173.56
2022-11-27T07:54:02.814Z,101172.97
2022-11-27T07:59:04.294Z,101177.19
2022-11-27T08:04:05.637Z,101171.09
2022-11-27T08:09:06.944Z,101165.28
2022-11-27T08:14:16.159Z,101140.75
2022-11-27T08:19:17.491Z,101125.41
2022-11-27T08:24:18.820Z,101134.44
2022-11-27T08:29:20.259Z,101125.88
2022-11-27T08:34:21.646Z,101122.75
2022-11-27T08:39:23.292Z,101086.56
2022-11-27T08:44:24.928Z,101104.84
2022-11-27T08:49:26.383Z,101124.47
2022-11-27T08:54:27.768Z,101114.41
2022-11-27T08:59:29.393Z,101109.97
2022-11-27T09:04:30.768Z,101116.81
2022-11-27T09:09:32.200Z,101095.81
2022-11-27T09:14:33.540Z,101097.63
2022-11-27T09:19:35.073Z,101086.06
2022-11-27T09:24:36.777Z,101090.03
2022-11-27T09:29:38.289Z,101093.22
2022-11-27T09:34:39.945Z,101081.66
2022-11-27T09:39:41.717Z,101071.25
2022-11-27T09:44:52.287Z,101074.84
2022-11-27T09:49:59.815Z,101068.34
2022-11-27T09:55:09.843Z,101051.31
2022-11-27T10:00:17.867Z,101055.22
2022-11-27T10:05:23.100Z,101040.59
2022-11-27T10:10:51.013Z,101034.63
2022-11-27T10:16:10.357Z,101020.69
2022-11-27T10:21:30.593Z,101015.84
2022-11-27T10:27:02.394Z,100993.47
2022-11-27T10:32:46.988Z,100990.53
2022-11-27T10:37:42.944Z,100972.09
2022-11-27T10:43:07.553Z,100972.50
2022-11-27T10:48:08.888Z,100936.44
2022-11-27T10:53:21.793Z,100945.44
2022-11-27T10:58:35.240Z,100949.19
2022-11-27T11:03:37.629Z,100941.94
2022-11-27T11:08:39.109Z,100932.03
2022-11-27T11:13:40.437Z,100931.41
2022-11-27T11:18:50.541Z,100940.03
2022-11-27T11:24:20.907Z,100910.41
2022-11-27T11:29:28.279Z,100894.03
2022-11-27T11:34:31.205Z,100871.16
2022-11-27T11:39:44.727Z,100853.16
2022-11-27T11:44:51.864Z,100854.88
2022-11-27T11:49:55.010Z,100852.06
2022-11-27T11:55:31.597Z,100841.00
2022-11-27T12:01:18.903Z,100835.56
2022-11-27T12:06:31.263Z,100821.53
2022-11-27T12:11:43.593Z,100817.16
2022-11-27T12:16:56.241Z,100835.13
2022-11-27T12:21:57.780Z,100832.13
2022-11-27T12:27:08.291Z,100832.28
2022-11-27T12:32:34.476Z,100812.13
2022-11-27T12:37:57.352Z,100805.63
2022-11-27T12:43:04.696Z,100785.88
2022-11-27T12:48:14.658Z,100795.47
2022-11-27T12:53:39.593Z,100788.47
2022-11-27T12:58:45.395Z,100770.50
2022-11-27T13:04:05.025Z,100746.09
2022-11-27T13:09:16.143Z,100736.63
2022-11-27T13:14:24.003Z,100735.13
2022-11-27T13:19:32.806Z,100717.56
2022-11-27T13:24:35.575Z,100719.28
2022-11-27T13:29:47.097Z,100711.03
2022-11-27T13:34:50.208Z,100718.91
2022-11-27T13:40:00.056Z,100700.38
2022-11-27T13:45:12.312Z,100701.63
2022-11-27T13:50:18.134Z,100694.75
2022-11-27T13:55:26.204Z,100676.13
2022-11-27T14:00:42.634Z,100678.88
2022-11-27T14:05:45.452Z,100669.03
2022-11-27T14:11:03.476Z,100668.13
2022-11-27T14:16:23.002Z,100662.22
2022-11-27T14:21:45.187Z,100655.00
2022-11-27T14:26:46.549Z,100632.81
2022-11-27T14:31:57.452Z,100622.13
2022-11-27T14:37:00.256Z,100603.69
2022-11-27T14:42:23.054Z,100591.94
2022-11-27T14:47:26.660Z,100585.66
2022-11-27T14:52:28.670Z,100576.13
2022-11-27T14:57:30.858Z,100569.25
2022-11-27T15:02:32.696Z,100602.06
2022-11-27T15:07:45.247Z,100615.88
2022-11-27T15:12:49.649Z,100613.13
2022-11-27T15:17:57.657Z,100592.59
2022-11-27T15:23:00.192Z,100579.34
2022-11-27T15:28:02.936Z,100553.84
2022-11-27T15:33:04.301Z,100570.84
2022-11-27T15:38:10.822Z,100568.72
2022-11-27T15:43:16.375Z,100550.88
2022-11-27T15:48:19.494Z,100536.19
2022-11-27T15:53:21.006Z,100550.41
2022-11-27T15:58:22.407Z,100555.22
2022-11-27T16:03:23.806Z,100554.06
2022-11-27T16:08:25.217Z,100559.78
2022-11-27T16:13:26.585Z,100551.25
2022-11-27T16:18:28.309Z,100530.16
2022-11-27T16:23:29.736Z,100554.53
2022-11-27T16:28:32.329Z,100543.97
2022-11-27T16:33:33.760Z,100533.19
2022-11-27T16:38:35.681Z,100526.94
2022-11-27T16:43:39.775Z,100532.66
2022-11-27T16:48:42.474Z,100528.44
2022-11-27T16:53:46.192Z,100528.28
2022-11-27T16:58:48.178Z,100521.75
2022-11-27T17:03:50.483Z,100523.56
2022-11-27T17:08:53.943Z,100504.53
2022-11-27T17:14:01.145Z,100496.56
2022-11-27T17:19:02.542Z,100490.44
2022-11-27T17:24:14.680Z,100480.53
2022-11-27T17:29:20.768Z,100473.66
2022-11-27T17:34:22.404Z,100466.00
2022-11-27T17:39:23.787Z,100456.06
2022-11-27T17:44:25.160Z,100459.25
2022-11-27T17:49:26.844Z,100479.81
2022-11-27T17:54:28.180Z,100461.56
2022-11-27T17:59:29.758Z,100462.63
2022-11-27T18:04:32.251Z,100440.94
2022-11-27T18:09:33.780Z,100439.38
2022-11-27T18:14:35.131Z,100429.97
2022-11-27T18:19:36.604Z,100414.44
2022-11-27T18:24:41.668Z,100404.47
2022-11-27T18:29:44.892Z,100379.63
2022-11-27T18:34:46.803Z,100378.59
2022-11-27T18:39:48.358Z,100394.28
2022-11-27T18:44:49.828Z,100369.69
2022-11-27T18:49:51.272Z,100356.09
2022-11-27T18:54:52.604Z,100352.69
2022-11-27T18:59:54.558Z,100359.03
2022-11-27T19:04:55.858Z,100333.63
2022-11-27T19:09:57.428Z,100351.25
2022-11-27T19:14:58.999Z,100355.03
2022-11-27T19:20:00.509Z,100315.56
2022-11-27T19:25:02.184Z,100347.31
2022-11-27T19:30:03.842Z,100330.41
2022-11-27T19:35:07.376Z,100318.00
2022-11-27T19:40:09.487Z,100342.22
2022-11-27T19:45:11.061Z,100333.63
2022-11-27T19:50:14.033Z,100319.63
2022-11-27T19:55:15.348Z,100288.97
2022-11-27T20:00:17.130Z,100287.19
2022-11-27T20:05:18.719Z,100260.66
2022-11-27T20:10:20.155Z,100219.56
2022-11-27T20:15:21.676Z,100258.22
2022-11-27T20:20:23.158Z,100270.22
2022-11-27T20:25:25.851Z,100273.28
2022-11-27T20:30:27.354Z,100271.50
2022-11-27T20:35:28.797Z,100267.06
2022-11-27T20:40:30.198Z,100267.06
2022-11-27T20:45:31.738Z,100258.16
2022-11-27T20:50:34.487Z,100242.44
2022-11-27T20:55:35.883Z,100253.28
2022-11-27T21:00:37.473Z,100249.66
2022-11-27T21:05:43.076Z,100258.38
2022-11-27T21:10:44.466Z,100246.28
2022-11-27T21:15:47.359Z,100237.78
2022-11-27T21:20:48.866Z,100200.47
2022-11-27T21:25:50.353Z,100228.06
2022-11-27T21:30:51.705Z,100228.16
2022-11-27T21:35:56.110Z,100214.34
2022-11-27T21:40:57.483Z,100208.75
2022-11-27T21:46:05.209Z,100206.53
2022-11-27T21:51:12.558Z,100198.69
2022-11-27T21:56:18.032Z,100194.00
2022-11-27T22:01:23.274Z,100193.28
2022-11-27T22:06:28.890Z,100170.59
2022-11-27T22:11:30.674Z,100164.69
2022-11-27T22:16:35.985Z,100161.16
2022-11-27T22:21:40.084Z,100176.53
2022-11-27T22:26:41.433Z,100174.09
2022-11-27T22:31:42.962Z,100161.59
2022-11-27T22:36:44.777Z,100176.63
2022-11-27T22:41:46.135Z,100159.88
2022-11-27T22:46:47.667Z,100158.72
2022-11-27T22:51:49.166Z,100159.34
2022-11-27T22:56:50.723Z,100173.53
2022-11-27T23:01:52.029Z,100154.47
2022-11-27T23:06:53.615Z,100147.94
2022-11-27T23:11:56.461Z,100142.06
2022-11-27T23:16:58.423Z,100134.44
2022-11-27T23:21:59.878Z,100119.09
2022-11-27T23:27:01.242Z,100107.88
2022-11-27T23:32:02.656Z,100092.94
2022-11-27T23:37:04.014Z,100095.19
2022-11-27T23:42:05.359Z,100096.13
2022-11-27T23:47:06.698Z,100102.03
2022-11-27T23:52:11.906Z,100079.69
2022-11-27T23:57:17.452Z,100103.94
